Time;durP1;ratioP1;P1;durP2;ratioP2;P2;SDS_P1;SDS_P2;PMS_P1;PMS_P2;Temp;Humidity;BMP_temperature;BMP_pressure;BME280_temperature;BME280_humidity;BME280_pressure;Samples;Min_cycle;Max_cycle;Signal;HPM_P1;HPM_P2
2023/07/20 00:00:35;;;;;;;4.13;3.73;;;26.40;46.40;;;;;;5030368;28;20513;-78
2023/07/20 00:03:11;;;;;;;3.60;3.40;;;26.30;46.40;;;;;;5024348;28;20438;-78
2023/07/20 00:05:40;;;;;;;4.40;4.00;;;26.40;46.50;;;;;;5031718;28;20463;-78
2023/07/20 00:08:08;;;;;;;4.33;3.50;;;26.30;46.40;;;;;;5036036;28;20438;-78
2023/07/20 00:10:36;;;;;;;3.67;3.37;;;26.30;46.50;;;;;;5033183;28;20430;-78
2023/07/20 00:13:04;;;;;;;3.47;3.17;;;26.30;46.50;;;;;;5031538;28;20410;-77
2023/07/20 00:15:32;;;;;;;3.10;2.90;;;26.30;46.60;;;;;;5038907;28;20458;-77
2023/07/20 00:17:59;;;;;;;3.40;3.20;;;26.20;46.60;;;;;;5040280;28;20553;-77
2023/07/20 00:20:27;;;;;;;3.47;3.17;;;26.20;46.50;;;;;;5023449;28;20442;-78
2023/07/20 00:22:57;;;;;;;3.40;3.20;;;26.20;46.60;;;;;;5031508;28;20462;-77
2023/07/20 00:25:25;;;;;;;3.33;3.13;;;26.20;46.60;;;;;;5031580;28;20849;-76
2023/07/20 00:27:53;;;;;;;3.60;3.40;;;26.20;46.50;;;;;;5030881;28;20492;-77
2023/07/20 00:30:21;;;;;;;3.50;3.20;;;26.20;46.70;;;;;;5031675;28;20414;-77
2023/07/20 00:32:49;;;;;;;3.27;3.00;;;26.20;46.70;;;;;;5031291;28;20493;-78
2023/07/20 00:35:17;;;;;;;3.63;3.33;;;26.20;46.80;;;;;;5031254;28;20949;-77
2023/07/20 00:37:45;;;;;;;3.30;3.10;;;26.20;46.70;;;;;;5030606;28;20566;-77
2023/07/20 00:40:14;;;;;;;3.53;3.30;;;26.20;46.80;;;;;;5023974;28;20981;-78
2023/07/20 00:42:42;;;;;;;3.23;3.03;;;26.20;46.80;;;;;;5031401;28;20435;-77
2023/07/20 00:45:10;;;;;;;12.77;9.97;;;26.10;47.10;;;;;;5037085;28;20475;-77
2023/07/20 00:47:38;;;;;;;17.63;14.60;;;26.10;46.90;;;;;;5031182;28;20440;-77
2023/07/20 00:50:07;;;;;;;16.13;12.50;;;26.10;46.80;;;;;;5026275;28;20425;-76
2023/07/20 00:52:35;;;;;;;15.80;12.70;;;26.00;46.90;;;;;;5026691;28;20527;-77
2023/07/20 00:55:04;;;;;;;17.40;13.30;;;26.10;46.90;;;;;;5031049;28;20533;-77
2023/07/20 00:57:33;;;;;;;21.30;16.77;;;26.10;46.90;;;;;;5024085;28;20461;-77
2023/07/20 01:00:02;;;;;;;22.13;17.27;;;26.10;46.90;;;;;;5036698;28;20493;-78
2023/07/20 01:02:29;;;;;;;24.00;18.33;;;26.10;46.90;;;;;;5033658;28;20474;-77
2023/07/20 01:04:57;;;;;;;21.00;16.40;;;26.10;46.90;;;;;;5031593;28;20450;-77
2023/07/20 01:07:27;;;;;;;24.53;16.80;;;26.00;46.90;;;;;;5030827;28;20475;-77
2023/07/20 01:10:00;;;;;;;23.93;19.33;;;26.00;46.90;;;;;;5030574;28;20502;-77
2023/07/20 01:12:31;;;;;;;25.20;19.00;;;26.00;47.00;;;;;;5024744;28;20411;-77
2023/07/20 01:15:00;;;;;;;28.00;20.30;;;26.00;46.90;;;;;;5029308;28;20521;-77
2023/07/20 01:17:28;;;;;;;25.30;19.50;;;26.00;47.00;;;;;;5031279;28;20504;-80
2023/07/20 01:19:56;;;;;;;25.40;19.63;;;25.90;46.90;;;;;;5029108;28;20533;-77
2023/07/20 01:22:35;;;;;;;26.53;20.40;;;25.90;47.00;;;;;;5024815;28;20487;-76
2023/07/20 01:25:18;;;;;;;30.67;22.07;;;26.00;47.10;;;;;;5030497;28;20442;-76
2023/07/20 01:28:15;;;;;;;30.87;23.73;;;25.90;47.00;;;;;;5021837;28;20446;-77
2023/07/20 01:30:57;;;;;;;28.70;21.90;;;26.00;47.10;;;;;;5022702;28;20498;-76
2023/07/20 01:33:26;;;;;;;30.77;23.47;;;25.90;47.10;;;;;;5010711;28;20451;-77
2023/07/20 01:35:55;;;;;;;31.03;23.60;;;25.90;47.10;;;;;;5011707;28;20474;-77
2023/07/20 01:38:23;;;;;;;29.93;22.67;;;25.90;47.10;;;;;;5030419;28;20534;-77
2023/07/20 01:40:51;;;;;;;31.67;24.50;;;25.90;47.10;;;;;;5021463;28;20523;-77
2023/07/20 01:43:19;;;;;;;32.60;24.93;;;25.90;47.20;;;;;;5029856;28;20410;-77
2023/07/20 01:45:47;;;;;;;31.63;23.93;;;25.90;47.10;;;;;;5021931;28;20535;-77
2023/07/20 01:48:16;;;;;;;29.20;22.00;;;25.80;47.20;;;;;;5026681;28;20420;-77
2023/07/20 01:50:45;;;;;;;30.90;23.43;;;25.80;47.20;;;;;;5026660;28;20501;-76
2023/07/20 01:53:14;;;;;;;30.80;23.20;;;25.90;47.10;;;;;;5022493;28;20527;-76
2023/07/20 01:55:42;;;;;;;30.97;23.10;;;25.80;47.20;;;;;;5028944;28;21051;-76
2023/07/20 01:58:09;;;;;;;32.90;24.90;;;25.80;47.20;;;;;;5023797;28;20544;-76
2023/07/20 02:00:38;;;;;;;30.13;22.73;;;25.80;47.30;;;;;;5032958;28;20509;-77
2023/07/20 02:03:06;;;;;;;32.87;24.40;;;25.80;47.20;;;;;;5024560;28;20459;-76
2023/07/20 02:05:33;;;;;;;32.20;24.67;;;25.80;47.30;;;;;;5032805;28;20433;-77
2023/07/20 02:08:03;;;;;;;31.13;23.37;;;25.80;47.30;;;;;;5032619;28;20504;-76
2023/07/20 02:10:30;;;;;;;31.33;23.20;;;25.80;47.20;;;;;;5033024;28;20441;-76
2023/07/20 02:12:59;;;;;;;29.17;22.30;;;25.80;47.90;;;;;;5033215;28;20519;-77
2023/07/20 02:15:27;;;;;;;32.10;23.80;;;25.70;47.30;;;;;;5034056;28;20467;-74
2023/07/20 02:17:55;;;;;;;28.83;22.30;;;25.70;47.40;;;;;;5034215;28;20546;-77
2023/07/20 02:20:23;;;;;;;31.07;23.50;;;25.70;47.20;;;;;;5033876;28;20506;-77
2023/07/20 02:22:51;;;;;;;31.27;23.87;;;25.70;47.40;;;;;;5033817;28;20409;-76
2023/07/20 02:25:21;;;;;;;31.80;23.83;;;25.70;47.40;;;;;;5029359;28;20460;-78
2023/07/20 02:27:49;;;;;;;33.20;24.60;;;25.70;47.40;;;;;;5014577;28;20442;-78
2023/07/20 02:30:17;;;;;;;28.47;22.00;;;25.70;47.50;;;;;;5033621;28;20466;-78
2023/07/20 02:32:48;;;;;;;31.03;23.60;;;25.70;47.40;;;;;;5033577;28;20534;-78
2023/07/20 02:35:16;;;;;;;31.53;22.97;;;25.60;47.30;;;;;;5029581;28;20524;-77
2023/07/20 02:37:44;;;;;;;31.07;23.57;;;25.60;47.50;;;;;;5053278;28;20486;-78
2023/07/20 02:40:13;;;;;;;29.13;22.43;;;25.60;47.40;;;;;;5053323;28;20954;-77
2023/07/20 02:42:42;;;;;;;30.83;22.80;;;25.70;47.40;;;;;;5053295;28;20446;-78
2023/07/20 02:45:11;;;;;;;28.70;21.90;;;25.60;47.60;;;;;;5046582;28;20548;-77
2023/07/20 02:47:39;;;;;;;30.43;22.30;;;25.60;47.50;;;;;;5041524;28;20501;-78
2023/07/20 02:50:09;;;;;;;28.67;22.33;;;25.60;47.40;;;;;;5035221;28;20530;-78
2023/07/20 02:52:37;;;;;;;29.37;22.30;;;25.60;47.60;;;;;;5053187;28;20413;-78
2023/07/20 02:55:05;;;;;;;27.50;20.47;;;25.60;47.60;;;;;;5052913;28;20552;-77
2023/07/20 02:57:33;;;;;;;27.50;21.57;;;25.60;47.60;;;;;;5039143;28;21019;-78
2023/07/20 03:00:04;;;;;;;26.60;20.93;;;25.50;47.50;;;;;;5037050;28;20459;-78
2023/07/20 03:02:32;;;;;;;26.53;20.53;;;25.60;47.70;;;;;;5031386;28;20547;-77
2023/07/20 03:05:02;;;;;;;29.90;22.50;;;25.50;47.60;;;;;;5033622;28;20446;-78
2023/07/20 03:07:30;;;;;;;27.20;21.10;;;25.60;47.60;;;;;;5034599;28;20425;-77
2023/07/20 03:09:58;;;;;;;24.97;19.70;;;25.50;47.60;;;;;;5041802;28;20443;-77
2023/07/20 03:12:26;;;;;;;27.10;20.03;;;25.50;47.60;;;;;;5052701;28;20474;-77
2023/07/20 03:14:56;;;;;;;26.10;20.00;;;25.50;47.70;;;;;;5036493;28;20966;-77
2023/07/20 03:17:26;;;;;;;25.63;19.80;;;25.50;48.20;;;;;;5029749;28;20478;-78
2023/07/20 03:19:54;;;;;;;25.73;19.70;;;25.50;47.40;;;;;;5024546;28;20450;-78
2023/07/20 03:22:22;;;;;;;26.47;19.23;;;25.50;47.70;;;;;;5032829;28;20493;-78
2023/07/20 03:24:51;;;;;;;25.23;19.40;;;25.50;47.70;;;;;;5048223;28;20531;-77
2023/07/20 03:27:18;;;;;;;25.07;19.33;;;25.50;47.70;;;;;;5049582;28;20442;-78
2023/07/20 03:29:46;;;;;;;23.57;18.60;;;25.50;47.70;;;;;;5031703;28;20511;-77
2023/07/20 03:32:14;;;;;;;25.27;19.37;;;25.50;47.70;;;;;;5047908;28;20493;-77
2023/07/20 03:34:44;;;;;;;23.43;18.60;;;25.50;47.70;;;;;;5030686;28;20485;-78
2023/07/20 03:37:13;;;;;;;22.87;18.40;;;25.40;47.60;;;;;;5038596;28;20526;-77
2023/07/20 03:39:41;;;;;;;26.10;19.33;;;25.50;47.70;;;;;;5028852;28;20545;-77
2023/07/20 03:42:08;;;;;;;23.37;18.27;;;25.40;47.60;;;;;;5031737;28;20446;-77
2023/07/20 03:44:36;;;;;;;25.83;19.60;;;25.40;47.80;;;;;;5031368;28;20469;-78
2023/07/20 03:47:05;;;;;;;23.43;18.50;;;25.40;47.70;;;;;;5032250;28;21016;-78
2023/07/20 03:49:33;;;;;;;25.13;19.30;;;25.40;47.70;;;;;;5033529;28;20443;-78
2023/07/20 03:52:03;;;;;;;23.67;18.37;;;25.40;47.80;;;;;;5038366;28;20481;-77
2023/07/20 03:54:31;;;;;;;26.07;20.07;;;25.30;47.70;;;;;;5037739;28;20475;-77
2023/07/20 03:56:59;;;;;;;25.40;19.27;;;25.40;47.80;;;;;;5048726;28;20485;-77
2023/07/20 03:59:27;;;;;;;29.30;18.20;;;25.30;47.70;;;;;;5032007;28;20574;-75
2023/07/20 04:01:55;;;;;;;24.53;18.73;;;25.30;47.90;;;;;;5031925;28;20439;-78
2023/07/20 04:04:23;;;;;;;23.37;17.97;;;25.30;48.00;;;;;;5032010;28;20449;-77
2023/07/20 04:06:51;;;;;;;22.10;17.53;;;25.30;48.00;;;;;;5031925;28;20443;-77
2023/07/20 04:09:20;;;;;;;20.93;17.10;;;25.30;47.90;;;;;;5034099;28;20912;-77
2023/07/20 04:11:47;;;;;;;24.10;17.90;;;25.30;47.90;;;;;;5031077;28;20445;-77
2023/07/20 04:14:15;;;;;;;21.80;17.33;;;25.30;47.90;;;;;;5031612;28;20576;-77
2023/07/20 04:16:43;;;;;;;19.53;15.70;;;25.30;48.00;;;;;;5031440;28;20509;-78
2023/07/20 04:19:11;;;;;;;21.67;17.10;;;25.30;47.90;;;;;;5030783;28;20463;-78
2023/07/20 04:21:40;;;;;;;20.77;16.40;;;25.20;47.90;;;;;;5036348;28;20491;-78
2023/07/20 04:24:08;;;;;;;21.97;17.00;;;25.20;48.00;;;;;;5042077;28;20547;-78
2023/07/20 04:26:38;;;;;;;21.67;16.60;;;25.20;47.90;;;;;;5030267;28;20455;-78
2023/07/20 04:29:06;;;;;;;20.53;16.23;;;25.20;47.90;;;;;;5024406;28;20407;-77
2023/07/20 04:31:34;;;;;;;21.57;16.57;;;25.20;48.00;;;;;;5030565;28;20905;-78
2023/07/20 04:34:02;;;;;;;23.07;17.63;;;25.20;48.00;;;;;;5030192;28;20563;-77
2023/07/20 04:36:30;;;;;;;19.20;15.63;;;25.20;47.90;;;;;;5041279;28;20500;-78
2023/07/20 04:38:57;;;;;;;19.50;15.20;;;25.10;48.00;;;;;;5050017;28;20535;-77
2023/07/20 04:41:26;;;;;;;20.37;16.00;;;25.20;48.00;;;;;;5047729;28;20456;-77
2023/07/20 04:43:55;;;;;;;22.33;17.33;;;25.10;48.00;;;;;;5026531;28;20518;-77
2023/07/20 04:46:22;;;;;;;20.57;16.47;;;25.20;48.00;;;;;;5038727;28;20431;-77
2023/07/20 04:48:51;;;;;;;20.60;16.40;;;25.10;48.00;;;;;;5030960;28;20398;-77
2023/07/20 04:51:20;;;;;;;18.60;14.93;;;25.10;48.00;;;;;;5019953;28;20430;-77
2023/07/20 04:53:48;;;;;;;18.80;14.67;;;25.10;47.90;;;;;;5051303;28;20466;-77
2023/07/20 04:56:16;;;;;;;18.77;14.50;;;25.10;48.00;;;;;;5047329;28;20471;-76
2023/07/20 04:58:45;;;;;;;19.17;15.13;;;25.10;47.90;;;;;;5022826;28;20481;-77
2023/07/20 05:01:14;;;;;;;17.40;14.47;;;25.10;48.00;;;;;;5027009;28;20459;-76
2023/07/20 05:03:42;;;;;;;18.10;14.00;;;25.10;48.00;;;;;;5039103;28;20421;-77
2023/07/20 05:06:10;;;;;;;17.60;14.20;;;25.10;47.90;;;;;;5030499;28;20917;-77
2023/07/20 05:08:38;;;;;;;17.73;13.80;;;25.10;47.90;;;;;;5026314;28;20446;-77
2023/07/20 05:11:07;;;;;;;17.47;13.60;;;25.10;47.90;;;;;;5035260;28;20433;-77
2023/07/20 05:13:34;;;;;;;17.33;14.20;;;25.10;48.00;;;;;;5030744;28;20443;-77
2023/07/20 05:16:03;;;;;;;17.10;13.73;;;25.10;47.80;;;;;;5030708;28;20498;-77
2023/07/20 05:18:32;;;;;;;17.40;14.20;;;25.00;48.00;;;;;;5028299;28;20475;-77
2023/07/20 05:21:00;;;;;;;17.77;14.10;;;25.00;47.80;;;;;;5045699;28;20484;-77
2023/07/20 05:23:28;;;;;;;17.80;13.80;;;25.00;48.00;;;;;;5039197;28;20428;-78
2023/07/20 05:25:56;;;;;;;16.07;12.70;;;25.00;47.80;;;;;;5030592;28;20484;-77
2023/07/20 05:28:24;;;;;;;15.80;13.07;;;25.00;47.90;;;;;;5029714;28;20447;-78
2023/07/20 05:30:52;;;;;;;16.57;13.40;;;25.00;47.90;;;;;;5045335;28;20437;-76
2023/07/20 05:33:21;;;;;;;16.87;13.27;;;25.00;47.80;;;;;;5054397;28;20517;-76
2023/07/20 05:35:50;;;;;;;15.43;12.30;;;25.00;47.90;;;;;;5045447;28;20483;-76
2023/07/20 05:38:18;;;;;;;17.17;13.33;;;25.00;47.90;;;;;;5034350;28;20531;-77
2023/07/20 05:40:46;;;;;;;15.73;12.47;;;25.00;47.80;;;;;;5034339;28;20486;-77
2023/07/20 05:43:14;;;;;;;14.33;12.20;;;25.00;47.90;;;;;;5034357;28;20440;-76
2023/07/20 05:45:43;;;;;;;15.80;13.07;;;25.00;47.70;;;;;;5034312;28;20454;-76
2023/07/20 05:48:12;;;;;;;14.40;12.27;;;25.00;47.70;;;;;;5034806;28;20430;-77
2023/07/20 05:50:43;;;;;;;14.53;11.83;;;25.00;47.80;;;;;;5049409;28;20436;-74
2023/07/20 05:53:12;;;;;;;13.50;11.60;;;25.10;47.80;;;;;;5027951;28;20964;-76
2023/07/20 05:55:40;;;;;;;15.43;12.53;;;25.10;47.90;;;;;;5033723;28;20486;-78
2023/07/20 05:58:08;;;;;;;13.67;11.53;;;25.10;47.80;;;;;;5034832;28;20439;-77
2023/07/20 06:00:36;;;;;;;14.63;11.97;;;25.10;47.70;;;;;;5025467;28;20471;-78
2023/07/20 06:03:04;;;;;;;15.73;11.70;;;25.10;47.80;;;;;;5033792;28;20509;-77
2023/07/20 06:05:32;;;;;;;13.63;11.33;;;25.10;47.80;;;;;;5032935;28;20480;-77
2023/07/20 06:08:01;;;;;;;13.63;11.00;;;25.00;47.70;;;;;;5034516;28;20447;-77
2023/07/20 06:10:30;;;;;;;14.63;11.23;;;25.10;48.00;;;;;;5033485;28;21051;-76
2023/07/20 06:12:58;;;;;;;14.53;11.40;;;25.10;47.70;;;;;;5031922;28;20459;-76
2023/07/20 06:15:27;;;;;;;12.17;10.67;;;25.20;47.80;;;;;;5033674;28;20460;-76
2023/07/20 06:17:55;;;;;;;11.83;10.03;;;25.20;47.80;;;;;;5025753;28;20410;-77
2023/07/20 06:20:23;;;;;;;12.20;10.40;;;25.20;47.70;;;;;;5033255;28;20510;-78
2023/07/20 06:22:51;;;;;;;12.40;10.80;;;25.20;47.70;;;;;;5032878;28;20467;-77
2023/07/20 06:25:20;;;;;;;12.23;10.30;;;25.30;47.60;;;;;;5033552;28;20530;-77
2023/07/20 06:27:50;;;;;;;11.37;10.17;;;25.40;47.60;;;;;;5033131;28;20418;-77
2023/07/20 06:30:17;;;;;;;10.53;9.43;;;25.40;47.40;;;;;;5033543;28;20446;-77
2023/07/20 06:32:46;;;;;;;11.80;10.27;;;25.50;47.30;;;;;;5029041;28;20410;-77
2023/07/20 06:35:13;;;;;;;10.10;9.10;;;25.50;47.10;;;;;;5022515;28;20991;-78
2023/07/20 06:37:42;;;;;;;10.93;9.30;;;25.50;47.10;;;;;;5025548;28;20944;-77
2023/07/20 06:40:10;;;;;;;10.53;9.43;;;25.50;47.20;;;;;;5032232;28;20534;-77
2023/07/20 06:42:41;;;;;;;10.23;8.90;;;25.60;47.20;;;;;;5033155;28;20531;-77
2023/07/20 06:45:13;;;;;;;10.20;9.10;;;25.60;47.10;;;;;;5033287;28;20521;-77
2023/07/20 06:47:41;;;;;;;11.10;9.30;;;25.70;47.20;;;;;;5033338;28;20410;-78
2023/07/20 06:50:10;;;;;;;9.70;8.70;;;25.70;47.20;;;;;;5033779;28;20425;-78
2023/07/20 06:52:44;;;;;;;9.23;8.20;;;25.70;47.10;;;;;;5021110;28;20496;-78
2023/07/20 06:55:12;;;;;;;10.93;8.93;;;25.70;47.10;;;;;;5032304;28;20874;-78
2023/07/20 06:57:40;;;;;;;9.10;8.13;;;25.70;47.20;;;;;;5033034;28;20479;-77
2023/07/20 07:00:16;;;;;;;10.20;8.87;;;25.80;47.30;;;;;;5032829;28;20592;-76
2023/07/20 07:02:43;;;;;;;9.10;7.97;;;25.90;47.10;;;;;;5028191;28;21064;-78
2023/07/20 07:05:15;;;;;;;8.40;7.50;;;25.90;47.40;;;;;;5031617;28;20537;-76
2023/07/20 07:07:48;;;;;;;9.50;8.50;;;26.00;47.20;;;;;;5028909;28;20461;-78
2023/07/20 07:10:18;;;;;;;8.87;7.97;;;26.00;47.10;;;;;;5029146;28;20450;-76
2023/07/20 07:12:46;;;;;;;9.93;8.03;;;26.10;47.30;;;;;;5031964;28;20428;-77
2023/07/20 07:15:15;;;;;;;9.43;8.00;;;26.20;47.10;;;;;;5032415;28;20456;-76
2023/07/20 07:17:44;;;;;;;8.90;7.70;;;26.20;47.00;;;;;;5031228;28;20466;-78
2023/07/20 07:20:12;;;;;;;7.30;6.60;;;26.40;47.10;;;;;;5033075;28;20470;-78
2023/07/20 07:22:48;;;;;;;8.03;7.23;;;26.40;46.90;;;;;;5030641;28;20493;-78
2023/07/20 07:25:16;;;;;;;9.57;7.40;;;26.50;47.60;;;;;;5033063;28;20491;-78
2023/07/20 07:27:50;;;;;;;7.83;6.73;;;26.50;47.00;;;;;;5031502;28;20475;-77
2023/07/20 07:30:19;;;;;;;7.80;7.00;;;26.60;46.90;;;;;;5031424;28;20459;-78
2023/07/20 07:32:47;;;;;;;9.70;7.40;;;26.70;47.00;;;;;;5024003;28;20858;-78
2023/07/20 07:35:15;;;;;;;7.80;7.00;;;26.80;47.00;;;;;;5029227;28;20814;-78
2023/07/20 07:37:43;;;;;;;8.00;6.40;;;27.00;46.80;;;;;;5032163;28;20441;-78
2023/07/20 07:40:30;;;;;;;7.13;6.43;;;27.10;46.70;;;;;;5025869;28;20465;-78
2023/07/20 07:42:58;;;;;;;7.40;6.70;;;27.20;46.50;;;;;;5031375;28;20471;-75
2023/07/20 07:45:27;;;;;;;7.77;6.97;;;27.30;46.30;;;;;;5032222;28;20494;-79
2023/07/20 07:47:55;;;;;;;7.50;6.80;;;27.40;46.30;;;;;;5027023;28;20479;-78
2023/07/20 07:50:23;;;;;;;6.80;6.20;;;27.40;46.20;;;;;;5029365;28;20430;-78
2023/07/20 07:52:52;;;;;;;6.97;6.27;;;27.40;46.20;;;;;;5029591;28;20429;-77
2023/07/20 07:55:20;;;;;;;7.63;6.87;;;27.50;46.40;;;;;;5028632;28;20446;-79
2023/07/20 07:57:48;;;;;;;5.87;5.37;;;27.70;46.20;;;;;;5040881;28;20447;-79
2023/07/20 08:00:18;;;;;;;8.13;6.13;;;27.80;46.10;;;;;;5031558;28;20857;-78
2023/07/20 08:02:48;;;;;;;6.20;5.60;;;27.90;45.80;;;;;;5026648;28;20493;-78
2023/07/20 08:05:16;;;;;;;6.53;5.93;;;28.00;45.90;;;;;;5025857;28;20424;-79
2023/07/20 08:07:45;;;;;;;5.73;5.27;;;28.10;45.90;;;;;;5027719;28;20432;-78
2023/07/20 08:10:12;;;;;;;6.70;6.10;;;28.20;45.80;;;;;;5024310;28;20418;-79
2023/07/20 08:12:41;;;;;;;7.00;5.70;;;28.30;45.80;;;;;;5026865;28;20527;-79
2023/07/20 08:15:11;;;;;;;5.87;5.37;;;28.30;45.80;;;;;;5026605;28;20893;-79
2023/07/20 08:17:39;;;;;;;6.70;6.07;;;28.50;45.90;;;;;;5025825;28;20523;-79
2023/07/20 08:20:12;;;;;;;5.70;5.20;;;28.70;45.50;;;;;;5029061;28;20434;-79
2023/07/20 08:22:40;;;;;;;5.50;5.00;;;28.70;45.40;;;;;;5024947;28;20443;-80
2023/07/20 08:25:09;;;;;;;5.73;5.20;;;28.80;45.40;;;;;;5025436;28;20446;-78
2023/07/20 08:27:37;;;;;;;5.60;5.00;;;28.90;45.40;;;;;;5028360;28;20488;-79
2023/07/20 08:30:07;;;;;;;6.90;5.03;;;29.00;45.30;;;;;;5028715;28;20501;-79
2023/07/20 08:32:35;;;;;;;5.57;5.10;;;29.10;45.20;;;;;;5026135;28;20498;-79
2023/07/20 08:35:04;;;;;;;5.10;4.70;;;29.20;45.20;;;;;;5073798;22;20450;-81
2023/07/20 08:37:34;;;;;;;5.50;5.00;;;29.30;45.20;;;;;;5103507;28;20458;-82
2023/07/20 08:40:08;;;;;;;4.90;4.60;;;29.40;45.00;;;;;;5109282;28;20447;-82
2023/07/20 08:42:36;;;;;;;5.43;4.97;;;29.40;44.90;;;;;;5107268;28;20446;-82
2023/07/20 08:45:07;;;;;;;5.00;4.60;;;29.60;44.90;;;;;;5097764;28;20476;-80
2023/07/20 08:47:35;;;;;;;5.23;4.73;;;29.70;44.80;;;;;;5081184;28;20484;-82
2023/07/20 08:50:05;;;;;;;8.50;5.00;;;29.90;44.70;;;;;;5085367;28;20998;-81
2023/07/20 08:52:36;;;;;;;5.10;4.60;;;30.10;44.30;;;;;;5083702;28;20400;-82
2023/07/20 08:55:05;;;;;;;4.30;3.97;;;30.20;44.10;;;;;;5096607;28;20427;-82
2023/07/20 08:57:33;;;;;;;4.50;4.23;;;30.30;44.00;;;;;;5087531;28;20433;-79
2023/07/20 09:00:04;;;;;;;4.57;4.27;;;30.40;44.10;;;;;;5075884;28;20467;-82
2023/07/20 09:02:32;;;;;;;4.83;4.37;;;30.60;44.10;;;;;;5076879;28;20473;-82
2023/07/20 09:05:00;;;;;;;4.50;4.20;;;30.80;43.50;;;;;;5085014;28;20461;-82
2023/07/20 09:07:27;;;;;;;4.40;4.10;;;30.90;43.70;;;;;;5083733;28;20456;-81
2023/07/20 09:09:58;;;;;;;4.33;4.13;;;31.00;43.50;;;;;;5078548;28;20444;-81
2023/07/20 09:12:27;;;;;;;4.50;4.20;;;30.90;43.20;;;;;;5075262;28;20454;-83
2023/07/20 09:14:58;;;;;;;4.17;3.93;;;30.80;43.30;;;;;;5086706;28;20496;-81
2023/07/20 09:17:27;;;;;;;3.70;3.40;;;30.70;43.60;;;;;;5092553;28;20445;-81
2023/07/20 09:19:57;;;;;;;4.83;4.23;;;30.60;43.60;;;;;;5088996;28;20448;-81
2023/07/20 09:22:30;;;;;;;4.57;4.23;;;30.40;43.90;;;;;;5093495;28;20465;-81
2023/07/20 09:25:00;;;;;;;4.20;3.90;;;30.30;44.10;;;;;;5077356;28;20457;-82
2023/07/20 09:27:38;;;;;;;5.40;3.80;;;30.30;44.30;;;;;;5081487;28;20518;-80
2023/07/20 09:30:09;;;;;;;3.93;3.67;;;30.50;44.20;;;;;;5074970;28;20448;-80
2023/07/20 09:32:41;;;;;;;4.00;3.70;;;30.50;44.40;;;;;;5074752;28;20446;-81
2023/07/20 09:35:15;;;;;;;4.40;4.10;;;30.80;44.40;;;;;;5074197;28;20572;-81
2023/07/20 09:37:52;;;;;;;4.50;4.20;;;31.00;44.20;;;;;;5073762;28;20517;-79
2023/07/20 09:40:42;;;;;;;4.60;4.30;;;31.30;44.00;;;;;;5073264;28;20434;-80
2023/07/20 09:43:12;;;;;;;3.97;3.77;;;31.30;43.50;;;;;;5081250;28;20557;-80
2023/07/20 09:45:44;;;;;;;4.13;3.83;;;31.40;43.50;;;;;;5097193;28;20492;-81
2023/07/20 09:48:14;;;;;;;4.00;3.80;;;31.40;43.40;;;;;;5082188;28;20453;-80
2023/07/20 09:50:50;;;;;;;3.73;3.43;;;31.50;43.20;;;;;;5082807;28;20462;-82
2023/07/20 09:53:18;;;;;;;3.80;3.60;;;31.60;43.30;;;;;;5081588;28;20468;-81
2023/07/20 09:55:48;;;;;;;3.60;3.40;;;31.60;43.00;;;;;;5080753;28;20460;-82
2023/07/20 09:58:16;;;;;;;3.67;3.37;;;31.70;42.90;;;;;;5091282;28;20460;-81
2023/07/20 10:00:46;;;;;;;3.70;3.50;;;31.70;42.80;;;;;;5087692;28;20540;-81
2023/07/20 10:03:19;;;;;;;3.57;3.33;;;31.60;43.00;;;;;;5089628;28;20466;-82
2023/07/20 10:05:49;;;;;;;3.50;3.20;;;31.80;43.30;;;;;;5081050;28;20489;-81
2023/07/20 10:08:18;;;;;;;3.27;3.03;;;32.10;43.20;;;;;;5080695;28;20430;-81
2023/07/20 10:10:50;;;;;;;3.50;3.30;;;32.30;43.00;;;;;;5100073;28;20460;-79
2023/07/20 10:13:19;;;;;;;3.47;3.27;;;32.50;42.80;;;;;;5101044;28;20493;-82
2023/07/20 10:15:48;;;;;;;3.60;3.30;;;32.70;42.70;;;;;;5099939;28;20476;-83
2023/07/20 10:18:18;;;;;;;3.53;3.33;;;33.00;42.60;;;;;;5094801;28;20956;-82
2023/07/20 10:20:46;;;;;;;3.53;3.30;;;33.20;42.30;;;;;;5086607;28;20441;-81
2023/07/20 10:23:17;;;;;;;4.50;3.07;;;33.30;42.10;;;;;;5096891;28;20515;-81
2023/07/20 10:25:45;;;;;;;3.73;3.37;;;33.30;41.80;;;;;;5085310;28;20461;-81
2023/07/20 10:28:15;;;;;;;3.60;3.30;;;33.10;41.80;;;;;;5085292;28;20412;-83
2023/07/20 10:30:42;;;;;;;2.83;2.73;;;33.10;41.90;;;;;;5086933;28;20444;-82
2023/07/20 10:33:10;;;;;;;2.70;2.50;;;33.30;42.30;;;;;;5108116;28;20463;-82
2023/07/20 10:35:54;;;;;;;3.03;2.83;;;33.40;42.50;;;;;;5098996;28;20510;-82
2023/07/20 10:38:41;;;;;;;3.47;3.27;;;33.70;42.40;;;;;;5080009;28;20490;-81
2023/07/20 10:41:19;;;;;;;2.63;2.43;;;33.80;41.80;;;;;;5080081;28;20948;-83
2023/07/20 10:43:49;;;;;;;2.83;2.63;;;33.90;41.80;;;;;;5080465;28;20462;-83
2023/07/20 10:46:33;;;;;;;2.60;2.50;;;34.20;42.00;;;;;;5080461;28;20479;-83
2023/07/20 10:49:02;;;;;;;3.20;2.90;;;34.50;41.50;;;;;;5079710;28;20433;-83
2023/07/20 10:51:29;;;;;;;3.07;2.90;;;34.60;41.40;;;;;;5079868;28;20444;-83
2023/07/20 10:53:58;;;;;;;2.90;2.80;;;34.90;41.20;;;;;;5092639;28;20443;-83
2023/07/20 10:56:27;;;;;;;2.80;2.67;;;35.10;40.80;;;;;;5096247;28;20542;-82
2023/07/20 10:59:00;;;;;;;3.13;2.93;;;35.20;40.10;;;;;;5102058;28;20494;-80
2023/07/20 11:01:32;;;;;;;3.00;2.80;;;35.40;40.40;;;;;;5107597;28;20476;-84
2023/07/20 11:04:01;;;;;;;2.80;2.70;;;35.50;40.30;;;;;;5097865;28;20529;-81
2023/07/20 11:06:38;;;;;;;2.97;2.77;;;35.70;40.10;;;;;;5095951;28;20461;-80
2023/07/20 11:09:10;;;;;;;2.80;2.60;;;35.90;39.90;;;;;;5090631;28;20460;-82
2023/07/20 11:11:38;;;;;;;2.30;2.20;;;36.00;39.60;;;;;;5091020;28;20440;-84
2023/07/20 11:14:09;;;;;;;2.50;2.40;;;36.30;39.50;;;;;;5099308;28;20417;-82
2023/07/20 11:16:38;;;;;;;2.70;2.60;;;36.50;39.40;;;;;;5098856;28;20441;-83
2023/07/20 11:19:11;;;;;;;2.90;2.70;;;36.40;38.90;;;;;;5099575;28;20486;-84
2023/07/20 11:21:40;;;;;;;2.53;2.43;;;36.50;38.60;;;;;;5100208;28;20441;-81
2023/07/20 11:24:27;;;;;;;2.73;2.53;;;36.60;39.20;;;;;;5078438;28;20433;-83
2023/07/20 11:26:55;;;;;;;2.37;2.17;;;36.80;39.40;;;;;;5078459;28;20436;-83
2023/07/20 11:29:25;;;;;;;2.53;2.43;;;36.80;38.80;;;;;;5087230;28;20453;-83
2023/07/20 11:32:00;;;;;;;2.30;2.20;;;36.60;38.50;;;;;;5079667;28;20429;-82
2023/07/20 11:34:30;;;;;;;2.30;2.20;;;36.50;38.60;;;;;;5078783;28;20943;-81
2023/07/20 11:36:58;;;;;;;2.20;2.03;;;36.50;38.70;;;;;;5079542;28;20481;-81
2023/07/20 11:39:29;;;;;;;2.13;2.03;;;36.50;39.00;;;;;;5079853;28;20469;-83
2023/07/20 11:41:57;;;;;;;2.17;2.07;;;36.40;39.20;;;;;;5078990;28;20433;-80
2023/07/20 11:44:27;;;;;;;1.40;1.40;;;36.30;39.00;;;;;;5083022;28;20468;-83
2023/07/20 11:47:03;;;;;;;2.10;2.00;;;36.00;39.10;;;;;;5079750;28;20469;-80
2023/07/20 11:49:31;;;;;;;2.20;2.10;;;35.70;40.00;;;;;;5077894;28;20445;-82
2023/07/20 11:52:01;;;;;;;2.10;2.00;;;35.50;39.70;;;;;;5077606;28;20430;-82
2023/07/20 11:54:29;;;;;;;1.93;1.83;;;35.30;40.00;;;;;;5086494;28;20525;-82
2023/07/20 11:56:57;;;;;;;2.27;2.17;;;35.10;40.20;;;;;;5088358;28;20429;-82
2023/07/20 11:59:26;;;;;;;2.00;1.90;;;34.90;40.40;;;;;;5082286;28;20436;-81
2023/07/20 12:01:54;;;;;;;1.70;1.70;;;34.80;41.00;;;;;;5076659;28;20441;-82
2023/07/20 12:04:26;;;;;;;1.63;1.63;;;35.20;41.80;;;;;;5085189;28;20473;-83
2023/07/20 12:06:57;;;;;;;2.00;1.90;;;35.70;41.10;;;;;;5080725;28;20437;-83
2023/07/20 12:09:24;;;;;;;1.50;1.50;;;36.30;40.50;;;;;;5091374;28;20487;-83
2023/07/20 12:12:10;;;;;;;1.40;1.40;;;36.90;39.50;;;;;;5088280;28;20457;-83
2023/07/20 12:14:39;;;;;;;2.80;1.60;;;37.70;38.60;;;;;;5079137;28;20489;-83
2023/07/20 12:17:09;;;;;;;1.20;1.20;;;38.30;37.80;;;;;;5082887;28;20447;-82
2023/07/20 12:19:39;;;;;;;2.00;1.23;;;39.00;36.20;;;;;;5084531;28;20445;-83
2023/07/20 12:22:07;;;;;;;1.23;1.23;;;39.70;35.40;;;;;;5090649;28;20449;-79
2023/07/20 12:24:35;;;;;;;1.40;1.30;;;40.50;34.40;;;;;;5079808;28;20879;-83
2023/07/20 12:27:04;;;;;;;1.60;1.60;;;41.00;33.70;;;;;;5079846;28;20437;-82
2023/07/20 12:29:35;;;;;;;1.40;1.40;;;41.20;33.30;;;;;;5079673;28;20445;-82
2023/07/20 12:32:07;;;;;;;1.30;1.30;;;41.90;32.50;;;;;;5083408;28;20433;-83
2023/07/20 12:34:34;;;;;;;1.00;1.00;;;42.60;31.90;;;;;;5086125;28;20485;-83
2023/07/20 12:37:05;;;;;;;1.23;1.23;;;43.20;31.00;;;;;;5088845;28;20525;-84
2023/07/20 12:39:32;;;;;;;1.43;1.33;;;43.60;30.40;;;;;;5088206;28;20951;-83
2023/07/20 12:42:00;;;;;;;1.30;1.30;;;44.00;29.90;;;;;;5088450;28;20456;-83
2023/07/20 12:44:29;;;;;;;1.27;1.27;;;44.40;29.70;;;;;;5077260;28;20476;-83
2023/07/20 12:46:57;;;;;;;1.10;1.10;;;44.60;29.40;;;;;;5076530;28;20437;-84
2023/07/20 12:49:26;;;;;;;1.33;1.30;;;44.80;29.20;;;;;;5077331;28;20440;-83